sensor_id;sensor_type;location;lat;lon;timestamp;P1;durP1;ratioP1;P2;durP2;ratioP2
55065;SDS011;40964;42.114;24.220;2022-08-01T00:01:53;9.38;;;7.05;;
55065;SDS011;40964;42.114;24.220;2022-08-01T00:04:20;9.15;;;7.10;;
55065;SDS011;40964;42.114;24.220;2022-08-01T00:06:45;8.93;;;7.50;;
55065;SDS011;40964;42.114;24.220;2022-08-01T00:09:11;9.35;;;7.35;;
55065;SDS011;40964;42.114;24.220;2022-08-01T00:11:37;9.07;;;7.00;;
55065;SDS011;40964;42.114;24.220;2022-08-01T00:14:03;8.57;;;6.85;;
55065;SDS011;40964;42.114;24.220;2022-08-01T00:16:28;10.00;;;7.53;;
55065;SDS011;40964;42.114;24.220;2022-08-01T00:18:54;10.30;;;7.20;;
55065;SDS011;40964;42.114;24.220;2022-08-01T00:21:20;10.02;;;7.50;;
55065;SDS011;40964;42.114;24.220;2022-08-01T00:23:45;10.88;;;7.68;;
55065;SDS011;40964;42.114;24.220;2022-08-01T00:26:12;10.50;;;7.32;;
55065;SDS011;40964;42.114;24.220;2022-08-01T00:28:38;8.88;;;7.40;;
55065;SDS011;40964;42.114;24.220;2022-08-01T00:31:04;10.13;;;7.65;;
55065;SDS011;40964;42.114;24.220;2022-08-01T00:33:29;11.10;;;7.85;;
55065;SDS011;40964;42.114;24.220;2022-08-01T00:35:55;8.75;;;7.15;;
55065;SDS011;40964;42.114;24.220;2022-08-01T00:38:21;10.65;;;7.90;;
55065;SDS011;40964;42.114;24.220;2022-08-01T00:40:46;10.18;;;7.47;;
55065;SDS011;40964;42.114;24.220;2022-08-01T00:43:12;9.00;;;7.30;;
55065;SDS011;40964;42.114;24.220;2022-08-01T00:45:38;9.13;;;7.90;;
55065;SDS011;40964;42.114;24.220;2022-08-01T00:48:03;9.45;;;7.30;;
55065;SDS011;40964;42.114;24.220;2022-08-01T00:50:29;9.20;;;6.88;;
55065;SDS011;40964;42.114;24.220;2022-08-01T00:52:55;9.35;;;7.32;;
55065;SDS011;40964;42.114;24.220;2022-08-01T00:55:22;9.77;;;7.28;;
55065;SDS011;40964;42.114;24.220;2022-08-01T00:57:48;10.77;;;7.47;;
55065;SDS011;40964;42.114;24.220;2022-08-01T01:00:14;10.32;;;7.65;;
55065;SDS011;40964;42.114;24.220;2022-08-01T01:02:40;8.95;;;6.93;;
55065;SDS011;40964;42.114;24.220;2022-08-01T01:05:06;8.25;;;6.53;;
55065;SDS011;40964;42.114;24.220;2022-08-01T01:07:33;10.73;;;6.78;;
55065;SDS011;40964;42.114;24.220;2022-08-01T01:10:16;9.18;;;6.38;;
55065;SDS011;40964;42.114;24.220;2022-08-01T01:12:59;8.50;;;6.38;;
55065;SDS011;40964;42.114;24.220;2022-08-01T01:20:42;9.88;;;6.50;;
55065;SDS011;40964;42.114;24.220;2022-08-01T01:25:54;8.75;;;6.47;;
55065;SDS011;40964;42.114;24.220;2022-08-01T01:28:29;8.75;;;6.30;;
55065;SDS011;40964;42.114;24.220;2022-08-01T01:31:00;7.50;;;6.10;;
55065;SDS011;40964;42.114;24.220;2022-08-01T01:33:29;10.38;;;6.68;;
55065;SDS011;40964;42.114;24.220;2022-08-01T01:36:01;9.35;;;6.45;;
55065;SDS011;40964;42.114;24.220;2022-08-01T01:38:34;9.75;;;7.10;;
55065;SDS011;40964;42.114;24.220;2022-08-01T01:41:07;8.32;;;6.45;;
55065;SDS011;40964;42.114;24.220;2022-08-01T01:43:35;8.93;;;5.88;;
55065;SDS011;40964;42.114;24.220;2022-08-01T01:46:03;8.13;;;6.18;;
55065;SDS011;40964;42.114;24.220;2022-08-01T01:48:30;7.70;;;5.40;;
55065;SDS011;40964;42.114;24.220;2022-08-01T01:50:57;7.57;;;6.00;;
55065;SDS011;40964;42.114;24.220;2022-08-01T01:53:24;8.88;;;6.25;;
55065;SDS011;40964;42.114;24.220;2022-08-01T01:55:52;6.93;;;5.47;;
55065;SDS011;40964;42.114;24.220;2022-08-01T01:58:20;7.25;;;5.60;;
55065;SDS011;40964;42.114;24.220;2022-08-01T02:00:48;7.38;;;5.60;;
55065;SDS011;40964;42.114;24.220;2022-08-01T02:03:16;7.97;;;5.53;;
55065;SDS011;40964;42.114;24.220;2022-08-01T02:05:43;7.93;;;5.65;;
55065;SDS011;40964;42.114;24.220;2022-08-01T02:08:09;6.75;;;5.13;;
55065;SDS011;40964;42.114;24.220;2022-08-01T02:10:38;7.65;;;5.78;;
55065;SDS011;40964;42.114;24.220;2022-08-01T02:13:05;6.75;;;5.43;;
55065;SDS011;40964;42.114;24.220;2022-08-01T02:15:32;6.72;;;5.47;;
55065;SDS011;40964;42.114;24.220;2022-08-01T02:18:03;8.13;;;5.15;;
55065;SDS011;40964;42.114;24.220;2022-08-01T02:20:30;7.80;;;5.28;;
55065;SDS011;40964;42.114;24.220;2022-08-01T02:23:01;7.03;;;5.43;;
55065;SDS011;40964;42.114;24.220;2022-08-01T02:25:38;10.00;;;5.25;;
55065;SDS011;40964;42.114;24.220;2022-08-01T02:28:06;7.70;;;5.05;;
55065;SDS011;40964;42.114;24.220;2022-08-01T02:30:38;7.22;;;5.18;;
55065;SDS011;40964;42.114;24.220;2022-08-01T02:33:18;9.00;;;5.95;;
55065;SDS011;40964;42.114;24.220;2022-08-01T02:35:52;7.47;;;5.35;;
55065;SDS011;40964;42.114;24.220;2022-08-01T02:38:23;7.13;;;5.00;;
55065;SDS011;40964;42.114;24.220;2022-08-01T02:40:52;7.47;;;5.28;;
55065;SDS011;40964;42.114;24.220;2022-08-01T02:43:23;8.25;;;4.95;;
55065;SDS011;40964;42.114;24.220;2022-08-01T02:45:51;5.90;;;4.53;;
55065;SDS011;40964;42.114;24.220;2022-08-01T02:48:21;8.10;;;5.47;;
55065;SDS011;40964;42.114;24.220;2022-08-01T02:50:51;8.73;;;4.65;;
55065;SDS011;40964;42.114;24.220;2022-08-01T02:53:19;7.97;;;5.00;;
55065;SDS011;40964;42.114;24.220;2022-08-01T02:55:47;6.63;;;4.57;;
55065;SDS011;40964;42.114;24.220;2022-08-01T02:58:15;8.82;;;4.97;;
55065;SDS011;40964;42.114;24.220;2022-08-01T03:00:44;6.65;;;4.32;;
55065;SDS011;40964;42.114;24.220;2022-08-01T03:03:12;6.40;;;4.65;;
55065;SDS011;40964;42.114;24.220;2022-08-01T03:05:39;5.65;;;4.03;;
55065;SDS011;40964;42.114;24.220;2022-08-01T03:08:06;7.68;;;4.57;;
55065;SDS011;40964;42.114;24.220;2022-08-01T03:10:36;6.75;;;4.45;;
55065;SDS011;40964;42.114;24.220;2022-08-01T03:13:05;7.07;;;4.50;;
55065;SDS011;40964;42.114;24.220;2022-08-01T03:15:33;7.88;;;4.60;;
55065;SDS011;40964;42.114;24.220;2022-08-01T03:18:02;4.57;;;3.45;;
55065;SDS011;40964;42.114;24.220;2022-08-01T03:20:31;5.10;;;3.45;;
55065;SDS011;40964;42.114;24.220;2022-08-01T03:23:03;6.72;;;3.60;;
55065;SDS011;40964;42.114;24.220;2022-08-01T03:25:31;4.03;;;3.35;;
55065;SDS011;40964;42.114;24.220;2022-08-01T03:28:01;9.02;;;3.17;;
55065;SDS011;40964;42.114;24.220;2022-08-01T03:30:28;8.10;;;4.03;;
55065;SDS011;40964;42.114;24.220;2022-08-01T03:32:55;6.57;;;4.40;;
55065;SDS011;40964;42.114;24.220;2022-08-01T03:35:21;8.60;;;3.83;;
55065;SDS011;40964;42.114;24.220;2022-08-01T03:37:54;6.78;;;3.28;;
55065;SDS011;40964;42.114;24.220;2022-08-01T03:40:23;4.57;;;2.70;;
55065;SDS011;40964;42.114;24.220;2022-08-01T03:42:54;4.20;;;3.13;;
55065;SDS011;40964;42.114;24.220;2022-08-01T03:47:56;4.75;;;2.75;;
55065;SDS011;40964;42.114;24.220;2022-08-01T03:50:25;3.87;;;3.37;;
55065;SDS011;40964;42.114;24.220;2022-08-01T03:52:53;5.25;;;2.95;;
55065;SDS011;40964;42.114;24.220;2022-08-01T03:55:22;3.28;;;2.55;;
55065;SDS011;40964;42.114;24.220;2022-08-01T03:57:49;5.15;;;2.90;;
55065;SDS011;40964;42.114;24.220;2022-08-01T04:00:18;3.03;;;2.75;;
55065;SDS011;40964;42.114;24.220;2022-08-01T04:02:48;5.85;;;2.60;;
55065;SDS011;40964;42.114;24.220;2022-08-01T04:05:15;3.70;;;2.53;;
55065;SDS011;40964;42.114;24.220;2022-08-01T04:07:45;3.00;;;2.50;;
55065;SDS011;40964;42.114;24.220;2022-08-01T04:10:12;4.38;;;3.00;;
55065;SDS011;40964;42.114;24.220;2022-08-01T04:12:38;4.88;;;3.67;;
55065;SDS011;40964;42.114;24.220;2022-08-01T04:15:04;5.05;;;4.00;;
55065;SDS011;40964;42.114;24.220;2022-08-01T04:17:30;6.45;;;3.78;;
55065;SDS011;40964;42.114;24.220;2022-08-01T04:19:56;4.00;;;3.25;;
55065;SDS011;40964;42.114;24.220;2022-08-01T04:22:21;4.68;;;4.10;;
55065;SDS011;40964;42.114;24.220;2022-08-01T04:24:48;6.18;;;4.43;;
55065;SDS011;40964;42.114;24.220;2022-08-01T04:27:20;8.32;;;4.35;;
55065;SDS011;40964;42.114;24.220;2022-08-01T04:29:49;8.20;;;4.72;;
55065;SDS011;40964;42.114;24.220;2022-08-01T04:32:20;7.10;;;4.63;;
55065;SDS011;40964;42.114;24.220;2022-08-01T04:34:48;5.55;;;4.32;;
55065;SDS011;40964;42.114;24.220;2022-08-01T04:37:15;5.57;;;4.18;;
55065;SDS011;40964;42.114;24.220;2022-08-01T04:39:43;9.23;;;4.18;;
55065;SDS011;40964;42.114;24.220;2022-08-01T04:42:11;8.07;;;4.07;;
55065;SDS011;40964;42.114;24.220;2022-08-01T04:44:38;5.88;;;4.07;;
55065;SDS011;40964;42.114;24.220;2022-08-01T04:47:04;4.25;;;3.63;;
55065;SDS011;40964;42.114;24.220;2022-08-01T04:49:33;6.80;;;4.32;;
55065;SDS011;40964;42.114;24.220;2022-08-01T04:51:59;6.60;;;3.65;;
55065;SDS011;40964;42.114;24.220;2022-08-01T04:54:28;9.35;;;4.50;;
55065;SDS011;40964;42.114;24.220;2022-08-01T04:56:55;6.97;;;3.78;;
55065;SDS011;40964;42.114;24.220;2022-08-01T04:59:25;9.02;;;4.28;;
55065;SDS011;40964;42.114;24.220;2022-08-01T05:02:17;4.72;;;4.22;;
55065;SDS011;40964;42.114;24.220;2022-08-01T05:04:44;4.97;;;3.90;;
55065;SDS011;40964;42.114;24.220;2022-08-01T05:07:11;6.75;;;4.13;;
55065;SDS011;40964;42.114;24.220;2022-08-01T05:09:37;5.53;;;4.22;;
55065;SDS011;40964;42.114;24.220;2022-08-01T05:12:04;4.57;;;3.35;;
55065;SDS011;40964;42.114;24.220;2022-08-01T05:14:31;4.40;;;3.65;;
55065;SDS011;40964;42.114;24.220;2022-08-01T05:16:58;5.53;;;3.40;;
55065;SDS011;40964;42.114;24.220;2022-08-01T05:19:27;4.45;;;3.42;;
55065;SDS011;40964;42.114;24.220;2022-08-01T05:21:52;6.25;;;3.30;;
55065;SDS011;40964;42.114;24.220;2022-08-01T05:24:21;3.70;;;3.17;;
55065;SDS011;40964;42.114;24.220;2022-08-01T05:26:47;2.88;;;2.67;;
55065;SDS011;40964;42.114;24.220;2022-08-01T05:29:14;4.30;;;2.80;;
55065;SDS011;40964;42.114;24.220;2022-08-01T05:31:40;4.22;;;2.92;;
55065;SDS011;40964;42.114;24.220;2022-08-01T05:34:06;5.00;;;2.63;;
55065;SDS011;40964;42.114;24.220;2022-08-01T05:36:31;3.10;;;2.80;;
55065;SDS011;40964;42.114;24.220;2022-08-01T05:38:57;4.38;;;2.58;;
55065;SDS011;40964;42.114;24.220;2022-08-01T05:41:23;2.90;;;2.60;;
55065;SDS011;40964;42.114;24.220;2022-08-01T05:43:48;4.82;;;3.03;;
55065;SDS011;40964;42.114;24.220;2022-08-01T05:46:14;4.10;;;3.22;;
55065;SDS011;40964;42.114;24.220;2022-08-01T05:48:39;3.63;;;3.13;;
55065;SDS011;40964;42.114;24.220;2022-08-01T05:51:05;3.78;;;3.17;;
55065;SDS011;40964;42.114;24.220;2022-08-01T05:53:30;3.25;;;2.95;;
55065;SDS011;40964;42.114;24.220;2022-08-01T05:55:59;5.20;;;3.45;;
55065;SDS011;40964;42.114;24.220;2022-08-01T05:58:26;2.92;;;2.72;;
55065;SDS011;40964;42.114;24.220;2022-08-01T06:00:52;3.53;;;2.88;;
55065;SDS011;40964;42.114;24.220;2022-08-01T06:03:17;6.45;;;2.65;;
55065;SDS011;40964;42.114;24.220;2022-08-01T06:05:43;4.65;;;2.55;;
55065;SDS011;40964;42.114;24.220;2022-08-01T06:08:09;2.75;;;2.50;;
55065;SDS011;40964;42.114;24.220;2022-08-01T06:10:35;3.00;;;2.70;;
55065;SDS011;40964;42.114;24.220;2022-08-01T06:13:01;3.03;;;2.80;;
55065;SDS011;40964;42.114;24.220;2022-08-01T06:15:31;3.70;;;2.85;;
55065;SDS011;40964;42.114;24.220;2022-08-01T06:17:58;3.50;;;2.95;;
55065;SDS011;40964;42.114;24.220;2022-08-01T06:20:24;4.03;;;2.78;;
55065;SDS011;40964;42.114;24.220;2022-08-01T06:22:49;5.72;;;2.70;;
55065;SDS011;40964;42.114;24.220;2022-08-01T06:25:17;3.10;;;2.80;;
55065;SDS011;40964;42.114;24.220;2022-08-01T06:27:45;2.58;;;2.38;;
55065;SDS011;40964;42.114;24.220;2022-08-01T06:30:10;4.75;;;2.90;;
55065;SDS011;40964;42.114;24.220;2022-08-01T06:32:36;2.97;;;2.65;;
55065;SDS011;40964;42.114;24.220;2022-08-01T06:35:02;2.50;;;2.28;;
55065;SDS011;40964;42.114;24.220;2022-08-01T06:37:28;2.95;;;2.58;;
55065;SDS011;40964;42.114;24.220;2022-08-01T06:39:55;2.35;;;2.13;;
55065;SDS011;40964;42.114;24.220;2022-08-01T06:42:21;2.60;;;2.40;;
55065;SDS011;40964;42.114;24.220;2022-08-01T06:44:47;2.13;;;2.00;;
55065;SDS011;40964;42.114;24.220;2022-08-01T06:47:12;2.85;;;1.90;;
55065;SDS011;40964;42.114;24.220;2022-08-01T06:49:38;5.65;;;2.38;;
55065;SDS011;40964;42.114;24.220;2022-08-01T06:52:03;2.65;;;2.20;;
55065;SDS011;40964;42.114;24.220;2022-08-01T06:54:29;2.72;;;2.08;;
55065;SDS011;40964;42.114;24.220;2022-08-01T06:56:55;2.25;;;2.00;;
55065;SDS011;40964;42.114;24.220;2022-08-01T06:59:20;3.20;;;2.05;;
55065;SDS011;40964;42.114;24.220;2022-08-01T07:01:46;2.20;;;1.90;;
55065;SDS011;40964;42.114;24.220;2022-08-01T07:04:11;2.55;;;2.10;;
55065;SDS011;40964;42.114;24.220;2022-08-01T07:06:37;2.83;;;2.28;;
55065;SDS011;40964;42.114;24.220;2022-08-01T07:09:03;2.38;;;2.13;;
55065;SDS011;40964;42.114;24.220;2022-08-01T07:11:28;2.60;;;1.80;;
55065;SDS011;40964;42.114;24.220;2022-08-01T07:13:54;2.53;;;2.20;;
55065;SDS011;40964;42.114;24.220;2022-08-01T07:16:19;2.20;;;2.00;;
55065;SDS011;40964;42.114;24.220;2022-08-01T07:18:45;2.08;;;1.90;;
55065;SDS011;40964;42.114;24.220;2022-08-01T07:21:11;4.55;;;2.42;;
55065;SDS011;40964;42.114;24.220;2022-08-01T07:23:36;2.30;;;2.10;;
55065;SDS011;40964;42.114;24.220;2022-08-01T07:26:02;2.20;;;2.00;;
55065;SDS011;40964;42.114;24.220;2022-08-01T07:28:29;2.50;;;2.30;;
55065;SDS011;40964;42.114;24.220;2022-08-01T07:30:55;2.80;;;2.30;;
55065;SDS011;40964;42.114;24.220;2022-08-01T07:33:21;2.80;;;2.40;;
55065;SDS011;40964;42.114;24.220;2022-08-01T07:35:47;2.50;;;2.30;;
55065;SDS011;40964;42.114;24.220;2022-08-01T07:38:13;4.20;;;2.40;;
55065;SDS011;40964;42.114;24.220;2022-08-01T07:40:40;2.67;;;2.47;;
55065;SDS011;40964;42.114;24.220;2022-08-01T07:43:05;2.67;;;2.30;;
55065;SDS011;40964;42.114;24.220;2022-08-01T07:45:31;3.78;;;2.65;;
55065;SDS011;40964;42.114;24.220;2022-08-01T07:48:01;3.78;;;2.50;;
55065;SDS011;40964;42.114;24.220;2022-08-01T07:50:30;2.33;;;2.15;;
55065;SDS011;40964;42.114;24.220;2022-08-01T07:52:55;2.50;;;2.30;;
55065;SDS011;40964;42.114;24.220;2022-08-01T07:55:21;4.40;;;2.75;;
55065;SDS011;40964;42.114;24.220;2022-08-01T07:57:46;2.70;;;2.50;;
55065;SDS011;40964;42.114;24.220;2022-08-01T08:00:12;3.58;;;2.50;;
55065;SDS011;40964;42.114;24.220;2022-08-01T08:02:38;4.10;;;2.45;;
55065;SDS011;40964;42.114;24.220;2022-08-01T08:05:04;8.13;;;2.58;;
55065;SDS011;40964;42.114;24.220;2022-08-01T08:07:30;4.93;;;2.67;;
55065;SDS011;40964;42.114;24.220;2022-08-01T08:09:55;2.85;;;2.65;;
55065;SDS011;40964;42.114;24.220;2022-08-01T08:12:21;3.25;;;2.58;;
55065;SDS011;40964;42.114;24.220;2022-08-01T08:14:47;2.70;;;2.50;;
55065;SDS011;40964;42.114;24.220;2022-08-01T08:17:12;2.70;;;2.40;;
55065;SDS011;40964;42.114;24.220;2022-08-01T08:19:40;2.75;;;2.10;;
55065;SDS011;40964;42.114;24.220;2022-08-01T08:22:07;2.80;;;2.60;;
55065;SDS011;40964;42.114;24.220;2022-08-01T08:24:36;2.45;;;2.25;;
55065;SDS011;40964;42.114;24.220;2022-08-01T08:27:02;3.03;;;2.72;;
55065;SDS011;40964;42.114;24.220;2022-08-01T08:29:29;2.65;;;2.45;;
55065;SDS011;40964;42.114;24.220;2022-08-01T08:31:57;4.55;;;2.90;;
55065;SDS011;40964;42.114;24.220;2022-08-01T08:34:24;3.42;;;3.00;;
55065;SDS011;40964;42.114;24.220;2022-08-01T08:36:50;2.90;;;2.70;;
55065;SDS011;40964;42.114;24.220;2022-08-01T08:39:17;3.08;;;2.40;;
55065;SDS011;40964;42.114;24.220;2022-08-01T08:41:42;3.40;;;2.80;;
55065;SDS011;40964;42.114;24.220;2022-08-01T08:44:08;4.03;;;2.20;;
55065;SDS011;40964;42.114;24.220;2022-08-01T08:46:42;3.75;;;2.67;;
55065;SDS011;40964;42.114;24.220;2022-08-01T08:49:18;4.05;;;2.60;;
55065;SDS011;40964;42.114;24.220;2022-08-01T08:51:47;4.05;;;2.60;;
55065;SDS011;40964;42.114;24.220;2022-08-01T08:54:14;2.80;;;2.15;;
55065;SDS011;40964;42.114;24.220;2022-08-01T08:56:41;4.43;;;2.40;;
55065;SDS011;40964;42.114;24.220;2022-08-01T08:59:07;2.50;;;2.30;;
55065;SDS011;40964;42.114;24.220;2022-08-01T09:01:32;2.80;;;2.60;;
55065;SDS011;40964;42.114;24.220;2022-08-01T09:04:00;3.45;;;2.75;;
55065;SDS011;40964;42.114;24.220;2022-08-01T09:06:26;3.00;;;2.67;;
55065;SDS011;40964;42.114;24.220;2022-08-01T09:08:54;3.35;;;2.65;;
55065;SDS011;40964;42.114;24.220;2022-08-01T09:11:19;2.80;;;2.60;;
55065;SDS011;40964;42.114;24.220;2022-08-01T09:16:32;3.20;;;2.90;;
55065;SDS011;40964;42.114;24.220;2022-08-01T09:21:57;3.25;;;2.72;;
55065;SDS011;40964;42.114;24.220;2022-08-01T09:24:25;2.67;;;2.47;;
55065;SDS011;40964;42.114;24.220;2022-08-01T09:26:51;2.75;;;2.55;;
55065;SDS011;40964;42.114;24.220;2022-08-01T09:29:19;2.50;;;2.30;;
55065;SDS011;40964;42.114;24.220;2022-08-01T09:31:51;2.80;;;2.60;;
55065;SDS011;40964;42.114;24.220;2022-08-01T09:34:24;2.50;;;2.30;;
55065;SDS011;40964;42.114;24.220;2022-08-01T09:36:55;2.97;;;2.20;;
55065;SDS011;40964;42.114;24.220;2022-08-01T09:39:29;3.25;;;2.90;;
55065;SDS011;40964;42.114;24.220;2022-08-01T09:41:58;4.22;;;2.50;;
55065;SDS011;40964;42.114;24.220;2022-08-01T09:44:38;2.83;;;2.60;;
55065;SDS011;40964;42.114;24.220;2022-08-01T09:47:05;2.08;;;1.98;;
55065;SDS011;40964;42.114;24.220;2022-08-01T09:49:34;2.38;;;2.17;;
55065;SDS011;40964;42.114;24.220;2022-08-01T09:52:16;6.72;;;2.38;;
55065;SDS011;40964;42.114;24.220;2022-08-01T09:57:23;2.97;;;2.15;;
55065;SDS011;40964;42.114;24.220;2022-08-01T09:59:52;2.50;;;2.25;;
55065;SDS011;40964;42.114;24.220;2022-08-01T10:04:53;2.30;;;2.10;;
55065;SDS011;40964;42.114;24.220;2022-08-01T10:07:22;3.10;;;2.20;;
55065;SDS011;40964;42.114;24.220;2022-08-01T10:09:48;5.28;;;2.38;;
55065;SDS011;40964;42.114;24.220;2022-08-01T10:12:15;2.38;;;2.08;;
55065;SDS011;40964;42.114;24.220;2022-08-01T10:14:47;2.88;;;2.60;;
55065;SDS011;40964;42.114;24.220;2022-08-01T10:17:20;2.22;;;2.03;;
55065;SDS011;40964;42.114;24.220;2022-08-01T10:19:49;3.22;;;2.33;;
55065;SDS011;40964;42.114;24.220;2022-08-01T10:22:19;5.45;;;2.40;;
55065;SDS011;40964;42.114;24.220;2022-08-01T10:24:50;3.72;;;2.35;;
55065;SDS011;40964;42.114;24.220;2022-08-01T10:27:21;5.07;;;2.45;;
55065;SDS011;40964;42.114;24.220;2022-08-01T10:29:51;2.80;;;2.60;;
55065;SDS011;40964;42.114;24.220;2022-08-01T10:32:25;2.70;;;2.50;;
55065;SDS011;40964;42.114;24.220;2022-08-01T10:34:51;3.08;;;2.40;;
55065;SDS011;40964;42.114;24.220;2022-08-01T10:37:18;5.10;;;2.55;;
55065;SDS011;40964;42.114;24.220;2022-08-01T10:39:43;2.95;;;2.70;;
55065;SDS011;40964;42.114;24.220;2022-08-01T10:42:10;2.80;;;2.60;;
55065;SDS011;40964;42.114;24.220;2022-08-01T10:44:37;5.03;;;2.25;;
55065;SDS011;40964;42.114;24.220;2022-08-01T10:47:06;2.50;;;2.30;;
55065;SDS011;40964;42.114;24.220;2022-08-01T10:49:36;2.40;;;2.20;;
55065;SDS011;40964;42.114;24.220;2022-08-01T10:52:17;2.30;;;2.10;;
55065;SDS011;40964;42.114;24.220;2022-08-01T10:54:43;2.50;;;2.30;;
55065;SDS011;40964;42.114;24.220;2022-08-01T10:57:09;2.90;;;2.70;;
55065;SDS011;40964;42.114;24.220;2022-08-01T10:59:47;4.00;;;3.10;;
55065;SDS011;40964;42.114;24.220;2022-08-01T11:02:26;3.22;;;3.03;;
55065;SDS011;40964;42.114;24.220;2022-08-01T11:04:55;7.88;;;3.00;;
55065;SDS011;40964;42.114;24.220;2022-08-01T11:07:24;3.28;;;2.95;;
55065;SDS011;40964;42.114;24.220;2022-08-01T11:10:09;3.85;;;3.50;;
55065;SDS011;40964;42.114;24.220;2022-08-01T11:12:43;4.47;;;3.40;;
55065;SDS011;40964;42.114;24.220;2022-08-01T11:17:35;4.35;;;3.20;;
55065;SDS011;40964;42.114;24.220;2022-08-01T11:20:13;5.55;;;3.33;;
55065;SDS011;40964;42.114;24.220;2022-08-01T11:25:28;3.78;;;3.45;;
55065;SDS011;40964;42.114;24.220;2022-08-01T11:30:48;3.75;;;3.42;;
55065;SDS011;40964;42.114;24.220;2022-08-01T11:38:35;4.50;;;2.75;;
55065;SDS011;40964;42.114;24.220;2022-08-01T11:43:59;3.30;;;3.00;;
55065;SDS011;40964;42.114;24.220;2022-08-01T11:51:59;4.78;;;3.10;;
55065;SDS011;40964;42.114;24.220;2022-08-01T11:54:46;3.22;;;3.00;;
55065;SDS011;40964;42.114;24.220;2022-08-01T11:57:16;3.25;;;2.95;;
55065;SDS011;40964;42.114;24.220;2022-08-01T11:59:47;4.85;;;2.80;;
55065;SDS011;40964;42.114;24.220;2022-08-01T12:02:21;4.35;;;3.00;;
55065;SDS011;40964;42.114;24.220;2022-08-01T12:04:58;3.40;;;3.10;;
55065;SDS011;40964;42.114;24.220;2022-08-01T12:07:26;3.45;;;3.15;;
55065;SDS011;40964;42.114;24.220;2022-08-01T12:10:08;3.72;;;3.42;;
55065;SDS011;40964;42.114;24.220;2022-08-01T12:15:29;3.80;;;3.50;;
55065;SDS011;40964;42.114;24.220;2022-08-01T12:18:00;3.65;;;2.60;;
55065;SDS011;40964;42.114;24.220;2022-08-01T12:20:28;3.03;;;2.70;;
55065;SDS011;40964;42.114;24.220;2022-08-01T12:22:55;3.13;;;2.78;;
55065;SDS011;40964;42.114;24.220;2022-08-01T12:25:22;3.28;;;2.75;;
55065;SDS011;40964;42.114;24.220;2022-08-01T12:27:48;3.95;;;3.25;;
55065;SDS011;40964;42.114;24.220;2022-08-01T12:30:15;3.08;;;2.38;;
55065;SDS011;40964;42.114;24.220;2022-08-01T12:32:43;3.58;;;2.38;;
55065;SDS011;40964;42.114;24.220;2022-08-01T12:40:25;2.90;;;2.70;;
55065;SDS011;40964;42.114;24.220;2022-08-01T12:42:54;7.38;;;3.15;;
55065;SDS011;40964;42.114;24.220;2022-08-01T12:45:22;3.40;;;3.10;;
55065;SDS011;40964;42.114;24.220;2022-08-01T12:47:51;8.10;;;3.45;;
55065;SDS011;40964;42.114;24.220;2022-08-01T12:50:19;2.90;;;2.63;;
55065;SDS011;40964;42.114;24.220;2022-08-01T12:52:47;3.20;;;2.90;;
55065;SDS011;40964;42.114;24.220;2022-08-01T12:55:14;3.30;;;3.00;;
55065;SDS011;40964;42.114;24.220;2022-08-01T12:57:41;4.75;;;2.83;;
55065;SDS011;40964;42.114;24.220;2022-08-01T13:02:37;3.10;;;2.90;;
55065;SDS011;40964;42.114;24.220;2022-08-01T13:05:03;2.95;;;2.75;;
55065;SDS011;40964;42.114;24.220;2022-08-01T13:07:36;3.05;;;2.75;;
55065;SDS011;40964;42.114;24.220;2022-08-01T13:10:10;4.05;;;3.08;;
55065;SDS011;40964;42.114;24.220;2022-08-01T13:12:37;3.30;;;3.10;;
55065;SDS011;40964;42.114;24.220;2022-08-01T13:15:23;2.70;;;2.50;;
55065;SDS011;40964;42.114;24.220;2022-08-01T13:17:56;3.20;;;2.92;;
55065;SDS011;40964;42.114;24.220;2022-08-01T13:20:28;4.18;;;3.08;;
55065;SDS011;40964;42.114;24.220;2022-08-01T13:23:09;4.78;;;2.90;;
55065;SDS011;40964;42.114;24.220;2022-08-01T13:25:49;3.10;;;2.80;;
55065;SDS011;40964;42.114;24.220;2022-08-01T13:28:21;3.25;;;2.90;;
55065;SDS011;40964;42.114;24.220;2022-08-01T13:30:59;3.28;;;3.08;;
55065;SDS011;40964;42.114;24.220;2022-08-01T13:33:27;2.78;;;2.58;;
55065;SDS011;40964;42.114;24.220;2022-08-01T13:36:05;2.88;;;2.67;;
55065;SDS011;40964;42.114;24.220;2022-08-01T13:38:31;3.65;;;2.60;;
55065;SDS011;40964;42.114;24.220;2022-08-01T13:41:16;2.95;;;2.65;;
55065;SDS011;40964;42.114;24.220;2022-08-01T13:43:41;4.88;;;2.70;;
55065;SDS011;40964;42.114;24.220;2022-08-01T13:46:07;4.40;;;2.58;;
55065;SDS011;40964;42.114;24.220;2022-08-01T13:48:33;3.00;;;2.80;;
55065;SDS011;40964;42.114;24.220;2022-08-01T13:50:59;2.80;;;2.60;;
55065;SDS011;40964;42.114;24.220;2022-08-01T13:53:25;2.50;;;2.30;;
55065;SDS011;40964;42.114;24.220;2022-08-01T13:55:51;2.65;;;2.40;;
55065;SDS011;40964;42.114;24.220;2022-08-01T13:58:17;2.70;;;2.50;;
55065;SDS011;40964;42.114;24.220;2022-08-01T14:00:43;2.70;;;2.50;;
55065;SDS011;40964;42.114;24.220;2022-08-01T14:03:08;2.60;;;2.40;;
55065;SDS011;40964;42.114;24.220;2022-08-01T14:05:35;2.55;;;2.35;;
55065;SDS011;40964;42.114;24.220;2022-08-01T14:08:02;2.92;;;2.33;;
55065;SDS011;40964;42.114;24.220;2022-08-01T14:10:27;2.70;;;2.28;;
55065;SDS011;40964;42.114;24.220;2022-08-01T14:12:54;2.80;;;2.60;;
55065;SDS011;40964;42.114;24.220;2022-08-01T14:15:21;3.72;;;2.42;;
55065;SDS011;40964;42.114;24.220;2022-08-01T14:17:47;3.00;;;2.58;;
55065;SDS011;40964;42.114;24.220;2022-08-01T14:20:15;3.42;;;2.70;;
55065;SDS011;40964;42.114;24.220;2022-08-01T14:22:44;2.70;;;2.50;;
55065;SDS011;40964;42.114;24.220;2022-08-01T14:25:11;2.72;;;2.35;;
55065;SDS011;40964;42.114;24.220;2022-08-01T14:27:36;4.07;;;2.35;;
55065;SDS011;40964;42.114;24.220;2022-08-01T14:30:02;2.85;;;2.10;;
55065;SDS011;40964;42.114;24.220;2022-08-01T14:32:28;2.80;;;2.60;;
55065;SDS011;40964;42.114;24.220;2022-08-01T14:34:55;2.85;;;2.63;;
55065;SDS011;40964;42.114;24.220;2022-08-01T14:37:21;2.80;;;2.60;;
55065;SDS011;40964;42.114;24.220;2022-08-01T14:39:50;2.80;;;2.20;;
55065;SDS011;40964;42.114;24.220;2022-08-01T14:42:20;3.08;;;2.75;;
55065;SDS011;40964;42.114;24.220;2022-08-01T14:44:46;2.92;;;2.72;;
55065;SDS011;40964;42.114;24.220;2022-08-01T14:47:13;2.90;;;2.70;;
55065;SDS011;40964;42.114;24.220;2022-08-01T14:49:39;4.50;;;2.85;;
55065;SDS011;40964;42.114;24.220;2022-08-01T14:52:05;3.42;;;3.15;;
55065;SDS011;40964;42.114;24.220;2022-08-01T14:54:31;2.58;;;2.30;;
55065;SDS011;40964;42.114;24.220;2022-08-01T14:56:57;4.80;;;2.50;;
55065;SDS011;40964;42.114;24.220;2022-08-01T14:59:22;4.03;;;2.70;;
55065;SDS011;40964;42.114;24.220;2022-08-01T15:01:48;2.75;;;2.55;;
55065;SDS011;40964;42.114;24.220;2022-08-01T15:04:13;3.00;;;2.80;;
55065;SDS011;40964;42.114;24.220;2022-08-01T15:06:39;3.25;;;2.80;;
55065;SDS011;40964;42.114;24.220;2022-08-01T15:09:04;2.97;;;2.78;;
55065;SDS011;40964;42.114;24.220;2022-08-01T15:11:30;6.03;;;2.85;;
55065;SDS011;40964;42.114;24.220;2022-08-01T15:13:56;3.10;;;2.80;;
55065;SDS011;40964;42.114;24.220;2022-08-01T15:16:43;2.95;;;2.70;;
55065;SDS011;40964;42.114;24.220;2022-08-01T15:19:08;2.70;;;2.50;;
55065;SDS011;40964;42.114;24.220;2022-08-01T15:21:34;4.13;;;2.67;;
55065;SDS011;40964;42.114;24.220;2022-08-01T15:23:59;3.33;;;3.10;;
55065;SDS011;40964;42.114;24.220;2022-08-01T15:26:25;3.28;;;2.97;;
55065;SDS011;40964;42.114;24.220;2022-08-01T15:28:52;2.88;;;2.67;;
55065;SDS011;40964;42.114;24.220;2022-08-01T15:31:18;5.05;;;2.67;;
55065;SDS011;40964;42.114;24.220;2022-08-01T15:33:43;3.38;;;2.50;;